createdAt,value
2019-05-02T00:00:23.827Z,0
2019-05-02T00:01:23.786Z,0
2019-05-02T00:02:28.382Z,0
2019-05-02T00:03:23.728Z,0
2019-05-02T00:04:23.857Z,0
2019-05-02T00:05:27.404Z,0
2019-05-02T00:06:23.855Z,0
2019-05-02T00:07:23.900Z,0
2019-05-02T00:08:23.827Z,0
2019-05-02T00:09:23.736Z,0
2019-05-02T00:10:24.896Z,0
2019-05-02T00:11:23.862Z,0
2019-05-02T00:12:23.916Z,0
2019-05-02T00:13:23.740Z,0
2019-05-02T00:14:23.803Z,0
2019-05-02T00:15:23.866Z,0
2019-05-02T00:16:23.870Z,0
2019-05-02T00:17:25.687Z,0
2019-05-02T00:18:23.869Z,0
2019-05-02T00:19:23.869Z,0
2019-05-02T00:20:25.944Z,0
2019-05-02T00:21:23.772Z,0
2019-05-02T00:22:23.842Z,0
2019-05-02T00:23:28.059Z,0
2019-05-02T00:24:23.838Z,0
2019-05-02T00:25:23.837Z,0
2019-05-02T00:26:24.810Z,0
2019-05-02T00:27:23.918Z,0
2019-05-02T00:28:23.777Z,0
2019-05-02T00:29:25.019Z,0
2019-05-02T00:30:23.844Z,0
2019-05-02T00:31:23.867Z,0
2019-05-02T00:32:23.785Z,0
2019-05-02T00:33:23.871Z,0
2019-05-02T00:34:23.848Z,0
2019-05-02T00:35:23.793Z,0
2019-05-02T00:36:23.849Z,0
2019-05-02T00:37:24.577Z,0
2019-05-02T00:38:23.855Z,0
2019-05-02T00:39:23.788Z,0
2019-05-02T00:40:25.725Z,0
2019-05-02T00:41:23.729Z,0
2019-05-02T00:42:24.088Z,0
2019-05-02T00:43:23.781Z,0
2019-05-02T00:44:23.851Z,0
2019-05-02T00:45:25.598Z,0
2019-05-02T00:46:23.842Z,0
2019-05-02T00:47:23.873Z,0
2019-05-02T00:48:24.425Z,0
2019-05-02T00:49:23.855Z,0
2019-05-02T00:50:23.764Z,0
2019-05-02T00:51:26.783Z,0
2019-05-02T00:52:23.892Z,0
2019-05-02T00:53:23.935Z,0
2019-05-02T00:54:25.229Z,0
2019-05-02T00:55:23.857Z,0
2019-05-02T00:56:23.893Z,0
2019-05-02T00:57:23.888Z,0
2019-05-02T00:58:27.257Z,0
2019-05-02T00:59:23.896Z,0
2019-05-02T01:00:23.779Z,0
2019-05-02T01:01:28.932Z,0
2019-05-02T01:02:23.835Z,0
2019-05-02T01:03:23.806Z,0
2019-05-02T01:04:27.549Z,0
2019-05-02T01:05:23.792Z,0
2019-05-02T01:06:23.872Z,0
2019-05-02T01:07:25.637Z,0
2019-05-02T01:08:23.893Z,0
2019-05-02T01:09:23.908Z,0
2019-05-02T01:10:23.842Z,0
2019-05-02T01:11:28.339Z,0
2019-05-02T01:12:26.484Z,0
2019-05-02T01:13:23.815Z,0
2019-05-02T01:14:27.186Z,0
2019-05-02T01:15:23.875Z,0
2019-05-02T01:16:23.817Z,0
2019-05-02T01:17:26.100Z,0
2019-05-02T01:18:23.881Z,0
2019-05-02T01:19:23.809Z,0
2019-05-02T01:20:27.674Z,0
2019-05-02T01:21:23.835Z,0
2019-05-02T01:22:23.832Z,0
2019-05-02T01:23:27.613Z,0
2019-05-02T01:24:23.786Z,0
2019-05-02T01:25:23.880Z,0
2019-05-02T01:26:24.187Z,0
2019-05-02T01:27:23.941Z,0
2019-05-02T01:28:23.785Z,0
2019-05-02T01:29:24.829Z,0
2019-05-02T01:30:23.879Z,0
2019-05-02T01:31:23.880Z,0
2019-05-02T01:32:25.245Z,0
2019-05-02T01:33:23.844Z,0
2019-05-02T01:34:23.821Z,0
2019-05-02T01:35:27.070Z,0
2019-05-02T01:36:23.778Z,0
2019-05-02T01:37:23.827Z,0
2019-05-02T01:38:26.266Z,0
2019-05-02T01:39:23.839Z,0
2019-05-02T01:40:23.825Z,0
2019-05-02T01:41:28.806Z,0
2019-05-02T01:42:23.840Z,0
2019-05-02T01:43:25.339Z,0
2019-05-02T01:44:23.797Z,0
2019-05-02T01:45:23.855Z,0
2019-05-02T01:46:24.178Z,0
2019-05-02T01:47:23.722Z,0
2019-05-02T01:48:23.855Z,0
2019-05-02T01:49:23.789Z,0
2019-05-02T01:50:23.798Z,0
2019-05-02T01:51:23.834Z,0
2019-05-02T01:52:25.001Z,0
2019-05-02T01:53:23.831Z,0
2019-05-02T01:54:23.941Z,0
2019-05-02T01:55:23.946Z,0
2019-05-02T01:56:23.863Z,0
2019-05-02T01:57:23.945Z,0
2019-05-02T01:58:23.885Z,0
2019-05-02T01:59:23.889Z,0
2019-05-02T02:00:23.870Z,0
2019-05-02T02:01:23.914Z,0
2019-05-02T02:02:28.084Z,0
2019-05-02T02:03:23.874Z,0
2019-05-02T02:04:23.819Z,0
2019-05-02T02:05:27.626Z,0
2019-05-02T02:06:23.793Z,0
2019-05-02T02:07:23.841Z,0
2019-05-02T02:08:27.216Z,0
2019-05-02T02:09:23.863Z,0
2019-05-02T02:10:23.845Z,0
2019-05-02T02:11:28.332Z,0
2019-05-02T02:12:23.942Z,0
2019-05-02T02:13:23.938Z,0
2019-05-02T02:14:23.870Z,0
2019-05-02T02:15:25.109Z,0
2019-05-02T02:16:23.920Z,0
2019-05-02T02:17:23.939Z,0
2019-05-02T02:18:27.498Z,0
2019-05-02T02:19:23.949Z,0
2019-05-02T02:20:23.956Z,0
2019-05-02T02:21:25.829Z,0
2019-05-02T02:22:23.922Z,0
2019-05-02T02:23:23.867Z,0
2019-05-02T02:24:25.261Z,0
2019-05-02T02:25:23.853Z,0
2019-05-02T02:26:23.944Z,0
2019-05-02T02:27:24.649Z,0
2019-05-02T02:28:23.865Z,0
2019-05-02T02:29:23.867Z,0
2019-05-02T02:30:26.360Z,0
2019-05-02T02:31:23.876Z,0
2019-05-02T02:32:27.090Z,0
2019-05-02T02:33:23.902Z,0
2019-05-02T02:34:29.069Z,0
2019-05-02T02:35:23.896Z,0
2019-05-02T02:36:31.482Z,0
2019-05-02T02:37:23.977Z,0
2019-05-02T02:38:26.937Z,0
2019-05-02T02:39:23.933Z,0
2019-05-02T02:40:33.009Z,0
2019-05-02T02:41:23.960Z,0
2019-05-02T02:42:24.930Z,0
2019-05-02T02:43:33.918Z,0
2019-05-02T02:44:23.942Z,0
2019-05-02T02:45:23.980Z,0
2019-05-02T02:46:23.971Z,0
2019-05-02T02:47:23.876Z,0
2019-05-02T02:48:23.980Z,0
2019-05-02T02:49:24.673Z,0
2019-05-02T02:50:23.908Z,0
2019-05-02T02:51:26.224Z,0
2019-05-02T02:52:23.929Z,0
2019-05-02T02:53:25.633Z,0
2019-05-02T02:54:23.873Z,0
2019-05-02T02:55:24.536Z,0
2019-05-02T02:56:23.977Z,0
2019-05-02T02:57:28.179Z,0
2019-05-02T02:58:23.960Z,0
2019-05-02T02:59:26.396Z,0
2019-05-02T03:00:23.977Z,0
2019-05-02T03:01:28.881Z,0
2019-05-02T03:02:23.887Z,0
2019-05-02T03:03:27.819Z,0
2019-05-02T03:04:23.963Z,0
2019-05-02T03:05:26.275Z,0
2019-05-02T03:06:23.975Z,0
2019-05-02T03:07:25.787Z,0
2019-05-02T03:08:23.968Z,0
2019-05-02T03:09:26.877Z,0
2019-05-02T03:10:23.995Z,0
2019-05-02T03:11:25.518Z,0
2019-05-02T03:12:23.752Z,0
2019-05-02T03:13:24.235Z,0
2019-05-02T03:14:23.857Z,0
2019-05-02T03:15:27.833Z,0
2019-05-02T03:16:23.865Z,0
2019-05-02T03:17:26.544Z,0
2019-05-02T03:18:27.096Z,4
2019-05-02T03:19:23.865Z,4
2019-05-02T03:20:23.964Z,4
2019-05-02T03:21:23.865Z,4
2019-05-02T03:22:23.869Z,4
2019-05-02T03:23:24.136Z,4
2019-05-02T03:24:23.874Z,4
2019-05-02T03:25:26.933Z,4
2019-05-02T03:26:23.964Z,8
2019-05-02T03:27:29.678Z,8
2019-05-02T03:28:24.001Z,12
2019-05-02T03:29:23.982Z,12
2019-05-02T03:30:31.695Z,12
2019-05-02T03:31:29.528Z,16
2019-05-02T03:32:33.702Z,16
2019-05-02T03:33:23.984Z,16
2019-05-02T03:34:23.959Z,20
2019-05-02T03:35:40.325Z,24
2019-05-02T03:36:30.079Z,24
2019-05-02T03:37:23.937Z,28
2019-05-02T03:38:31.432Z,32
2019-05-02T03:39:23.939Z,36
2019-05-02T03:40:23.894Z,40
2019-05-02T03:41:23.987Z,48
2019-05-02T03:42:23.931Z,52
2019-05-02T03:43:25.708Z,60
2019-05-02T03:44:26.089Z,72
2019-05-02T03:45:23.986Z,84
2019-05-02T03:46:23.929Z,92
2019-05-02T03:47:24.010Z,104
2019-05-02T03:48:25.703Z,116
2019-05-02T03:49:23.924Z,124
2019-05-02T03:50:31.606Z,140
2019-05-02T03:51:25.146Z,148
2019-05-02T03:52:24.030Z,168
2019-05-02T03:53:25.656Z,188
2019-05-02T03:54:23.961Z,208
2019-05-02T03:55:30.887Z,228
2019-05-02T03:56:23.965Z,240
2019-05-02T03:57:31.661Z,256
2019-05-02T03:58:23.995Z,280
2019-05-02T03:59:37.496Z,304
2019-05-02T04:00:24.559Z,324
2019-05-02T04:01:24.019Z,336
2019-05-02T04:02:24.001Z,352
2019-05-02T04:03:24.035Z,380
2019-05-02T04:04:24.048Z,412
2019-05-02T04:05:24.046Z,444
2019-05-02T04:06:24.003Z,480
2019-05-02T04:07:24.030Z,520
2019-05-02T04:08:23.911Z,560
2019-05-02T04:09:24.049Z,620
2019-05-02T04:10:23.974Z,704
2019-05-02T04:11:23.961Z,844
2019-05-02T04:12:24.009Z,924
2019-05-02T04:13:23.945Z,928
2019-05-02T04:14:37.417Z,928
2019-05-02T04:15:28.661Z,952
2019-05-02T04:16:23.972Z,1012
2019-05-02T04:17:28.676Z,1112
2019-05-02T04:18:24.016Z,1168
2019-05-02T04:19:28.852Z,1296
2019-05-02T04:20:24.028Z,1356
2019-05-02T04:21:26.028Z,1392
2019-05-02T04:22:23.974Z,1460
2019-05-02T04:23:27.529Z,1568
2019-05-02T04:24:24.038Z,1728
2019-05-02T04:25:28.072Z,1888
2019-05-02T04:26:24.018Z,1872
2019-05-02T04:27:27.707Z,1796
2019-05-02T04:28:23.992Z,1828
2019-05-02T04:29:24.528Z,1908
2019-05-02T04:30:23.974Z,2060
2019-05-02T04:31:25.002Z,2360
2019-05-02T04:32:24.019Z,2652
2019-05-02T04:33:28.994Z,2904
2019-05-02T04:34:24.020Z,2668
2019-05-02T04:35:28.861Z,2500
2019-05-02T04:36:24.034Z,2680
2019-05-02T04:37:24.026Z,3084
2019-05-02T04:38:39.087Z,3484
2019-05-02T04:39:23.955Z,3320
2019-05-02T04:40:24.028Z,3356
2019-05-02T04:41:28.718Z,3544
2019-05-02T04:42:24.006Z,3456
2019-05-02T04:43:24.003Z,3728
2019-05-02T04:44:32.413Z,3656
2019-05-02T04:45:29.342Z,3368
2019-05-02T04:46:28.014Z,3588
2019-05-02T04:47:24.061Z,3892
2019-05-02T04:48:23.987Z,3960
2019-05-02T04:49:32.901Z,3824
2019-05-02T04:50:25.358Z,3776
2019-05-02T04:51:27.468Z,3904
2019-05-02T04:52:24.037Z,3700
2019-05-02T04:53:25.982Z,3996
2019-05-02T04:54:31.424Z,3992
2019-05-02T04:55:30.278Z,3956
2019-05-02T04:56:24.055Z,3916
2019-05-02T04:57:27.165Z,3936
2019-05-02T04:58:29.680Z,4248
2019-05-02T04:59:23.978Z,4700
2019-05-02T05:00:24.051Z,4892
2019-05-02T05:01:24.054Z,4976
2019-05-02T05:02:31.192Z,5252
2019-05-02T05:03:24.013Z,5520
2019-05-02T05:04:23.982Z,5236
2019-05-02T05:05:25.655Z,5164
2019-05-02T05:06:24.056Z,5160
2019-05-02T05:07:24.054Z,4968
2019-05-02T05:08:26.529Z,5076
2019-05-02T05:09:24.002Z,5216
2019-05-02T05:10:23.956Z,5608
2019-05-02T05:11:24.947Z,5908
2019-05-02T05:12:23.990Z,5712
2019-05-02T05:13:26.527Z,5204
2019-05-02T05:14:24.063Z,4944
2019-05-02T05:15:37.153Z,5000
2019-05-02T05:16:24.065Z,5144
2019-05-02T05:17:25.056Z,5080
2019-05-02T05:18:23.947Z,4852
2019-05-02T05:19:28.716Z,4784
2019-05-02T05:20:24.077Z,4692
2019-05-02T05:21:25.005Z,4788
2019-05-02T05:22:24.065Z,4916
2019-05-02T05:23:24.072Z,4812
2019-05-02T05:24:25.029Z,4724
2019-05-02T05:25:24.079Z,4688
2019-05-02T05:26:24.064Z,4760
2019-05-02T05:27:24.070Z,4932
2019-05-02T05:28:24.071Z,5128
2019-05-02T05:29:24.071Z,5448
2019-05-02T05:30:24.124Z,5696
2019-05-02T05:31:25.728Z,5604
2019-05-02T05:32:24.085Z,5776
2019-05-02T05:33:24.076Z,5660
2019-05-02T05:34:28.490Z,5852
2019-05-02T05:35:24.040Z,6028
2019-05-02T05:36:29.187Z,6152
2019-05-02T05:37:24.004Z,6552
2019-05-02T05:38:28.583Z,7032
2019-05-02T05:39:24.007Z,6948
2019-05-02T05:40:30.379Z,6824
2019-05-02T05:41:24.090Z,6420
2019-05-02T05:42:30.193Z,6780
2019-05-02T05:43:23.997Z,6968
2019-05-02T05:44:30.631Z,6240
2019-05-02T05:45:23.997Z,6596
2019-05-02T05:46:24.073Z,6860
2019-05-02T05:47:24.005Z,7244
2019-05-02T05:48:24.072Z,7104
2019-05-02T05:49:24.001Z,6384
2019-05-02T05:50:24.079Z,5956
2019-05-02T05:51:24.001Z,6240
2019-05-02T05:52:24.019Z,6284
2019-05-02T05:53:24.552Z,6324
2019-05-02T05:54:24.170Z,6180
2019-05-02T05:55:24.581Z,5964
2019-05-02T05:56:24.013Z,5984
2019-05-02T05:57:24.085Z,6040
2019-05-02T05:58:24.012Z,6112
2019-05-02T05:59:28.063Z,6716
2019-05-02T06:00:24.020Z,6704
2019-05-02T06:01:25.968Z,6284
2019-05-02T06:02:24.101Z,6112
2019-05-02T06:03:24.084Z,6440
2019-05-02T06:04:30.141Z,7316
2019-05-02T06:05:24.029Z,7416
2019-05-02T06:06:24.564Z,7548
2019-05-02T06:07:24.111Z,7932
2019-05-02T06:08:24.109Z,8192
2019-05-02T06:09:26.435Z,8532
2019-05-02T06:10:24.101Z,9612
2019-05-02T06:11:24.099Z,10280
2019-05-02T06:12:26.178Z,10248
2019-05-02T06:13:24.092Z,10496
2019-05-02T06:14:24.894Z,10676
2019-05-02T06:15:24.040Z,11016
2019-05-02T06:16:24.104Z,11432
2019-05-02T06:17:28.644Z,11836
2019-05-02T06:18:24.047Z,11912
2019-05-02T06:19:24.131Z,12344
2019-05-02T06:20:25.650Z,12420
2019-05-02T06:21:24.045Z,12400
2019-05-02T06:22:25.418Z,13556
2019-05-02T06:23:24.107Z,14996
2019-05-02T06:24:24.122Z,15744
2019-05-02T06:25:32.567Z,17516
2019-05-02T06:26:24.163Z,18068
2019-05-02T06:27:26.065Z,17904
2019-05-02T06:28:24.057Z,18564
2019-05-02T06:29:24.118Z,17856
2019-05-02T06:30:27.082Z,19140
2019-05-02T06:31:24.116Z,20468
2019-05-02T06:32:24.113Z,22080
2019-05-02T06:33:25.936Z,24416
2019-05-02T06:34:24.049Z,23776
2019-05-02T06:35:24.124Z,23200
2019-05-02T06:36:24.122Z,24320
2019-05-02T06:37:24.119Z,26240
2019-05-02T06:38:24.121Z,23584
2019-05-02T06:39:27.069Z,21728
2019-05-02T06:40:24.125Z,24480
2019-05-02T06:41:24.069Z,25632
2019-05-02T06:42:27.612Z,25728
2019-05-02T06:43:24.061Z,25184
2019-05-02T06:44:25.446Z,24224
2019-05-02T06:45:24.014Z,24608
2019-05-02T06:46:27.436Z,24224
2019-05-02T06:47:24.081Z,25600
2019-05-02T06:48:24.064Z,23744
2019-05-02T06:49:25.945Z,23168
2019-05-02T06:50:24.843Z,24640
2019-05-02T06:51:24.030Z,23136
2019-05-02T06:52:27.215Z,21344
2019-05-02T06:53:24.029Z,22432
2019-05-02T06:54:24.145Z,24352
2019-05-02T06:55:27.800Z,21568
2019-05-02T06:56:24.116Z,19964
2019-05-02T06:57:25.806Z,18996
2019-05-02T06:58:24.088Z,17548
2019-05-02T06:59:24.070Z,17264
2019-05-02T07:00:35.708Z,18704
2019-05-02T07:01:24.002Z,19904
2019-05-02T07:02:28.282Z,22016
2019-05-02T07:03:24.071Z,21208
2019-05-02T07:04:25.054Z,19832
2019-05-02T07:05:27.180Z,19296
2019-05-02T07:06:24.424Z,19700
2019-05-02T07:07:25.122Z,19884
2019-05-02T07:08:24.042Z,20312
2019-05-02T07:09:24.489Z,21824
2019-05-02T07:10:25.367Z,24736
2019-05-02T07:11:24.097Z,28832
2019-05-02T07:12:24.086Z,29504
2019-05-02T07:13:24.153Z,31232
2019-05-02T07:14:25.634Z,32992
2019-05-02T07:15:24.176Z,36960
2019-05-02T07:16:37.647Z,38144
2019-05-02T07:17:26.659Z,41696
2019-05-02T07:18:24.044Z,38656
2019-05-02T07:19:27.534Z,37408
2019-05-02T07:20:24.154Z,32096
2019-05-02T07:21:24.158Z,31648
2019-05-02T07:22:24.081Z,34976
2019-05-02T07:23:24.157Z,34368
2019-05-02T07:24:25.251Z,39520
2019-05-02T07:25:24.157Z,36640
2019-05-02T07:26:24.085Z,32704
2019-05-02T07:27:28.405Z,30464
2019-05-02T07:28:24.315Z,30720
2019-05-02T07:29:24.101Z,31424
2019-05-02T07:30:24.168Z,35712
2019-05-02T07:31:24.093Z,39968
2019-05-02T07:32:25.099Z,38304
2019-05-02T07:33:24.160Z,33280
2019-05-02T07:34:24.166Z,30176
2019-05-02T07:35:25.810Z,29728
2019-05-02T07:36:24.127Z,28512
2019-05-02T07:37:24.095Z,26688
2019-05-02T07:38:25.705Z,27104
2019-05-02T07:39:24.169Z,26912
2019-05-02T07:40:24.111Z,25536
2019-05-02T07:41:28.568Z,24032
2019-05-02T07:42:24.097Z,24224
2019-05-02T07:43:24.166Z,24416
2019-05-02T07:44:27.207Z,23648
2019-05-02T07:45:24.090Z,23552
2019-05-02T07:46:24.204Z,23744
2019-05-02T07:47:24.173Z,22656
2019-05-02T07:48:24.100Z,22400
2019-05-02T07:49:26.524Z,25088
2019-05-02T07:50:24.112Z,27616
2019-05-02T07:51:24.182Z,25760
2019-05-02T07:52:24.176Z,22144
2019-05-02T07:53:24.106Z,19744
2019-05-02T07:54:24.975Z,19644
2019-05-02T07:55:24.106Z,20548
2019-05-02T07:56:24.108Z,21112
2019-05-02T07:57:25.136Z,22144
2019-05-02T07:58:24.108Z,23904
2019-05-02T07:59:25.131Z,24992
2019-05-02T08:00:24.180Z,26464
2019-05-02T08:01:24.183Z,27296
2019-05-02T08:02:25.175Z,30464
2019-05-02T08:03:24.114Z,34752
2019-05-02T08:04:24.113Z,35424
2019-05-02T08:05:24.187Z,31872
2019-05-02T08:06:34.624Z,31200
2019-05-02T08:07:27.154Z,29728
2019-05-02T08:08:24.997Z,27904
2019-05-02T08:09:24.186Z,27552
2019-05-02T08:10:24.188Z,27840
2019-05-02T08:11:24.187Z,27808
2019-05-02T08:12:24.119Z,28128
2019-05-02T08:13:24.183Z,27968
2019-05-02T08:14:24.107Z,29120
2019-05-02T08:15:24.786Z,31520
2019-05-02T08:16:27.436Z,33152
2019-05-02T08:17:24.182Z,35168
2019-05-02T08:18:25.279Z,36736
2019-05-02T08:19:24.112Z,39104
2019-05-02T08:20:24.183Z,41952
2019-05-02T08:21:27.406Z,43648
2019-05-02T08:22:24.189Z,42464
2019-05-02T08:23:25.907Z,41920
2019-05-02T08:24:24.154Z,42240
2019-05-02T08:25:24.130Z,39520
2019-05-02T08:26:24.201Z,36800
2019-05-02T08:27:24.147Z,33760
2019-05-02T08:28:24.202Z,30816
2019-05-02T08:29:28.744Z,29408
2019-05-02T08:30:24.201Z,29280
2019-05-02T08:31:24.206Z,28064
2019-05-02T08:32:24.224Z,27424
2019-05-02T08:33:24.169Z,26944
2019-05-02T08:34:24.251Z,25984
2019-05-02T08:35:24.141Z,25248
2019-05-02T08:36:24.212Z,26720
2019-05-02T08:37:24.136Z,29088
2019-05-02T08:38:24.209Z,28960
2019-05-02T08:39:25.885Z,28672
2019-05-02T08:40:24.145Z,28224
2019-05-02T08:41:24.214Z,26944
2019-05-02T08:42:27.749Z,25888
2019-05-02T08:43:24.129Z,25312
2019-05-02T08:44:24.127Z,24288
2019-05-02T08:45:24.202Z,22816
2019-05-02T08:46:24.145Z,21664
2019-05-02T08:47:28.699Z,21920
2019-05-02T08:48:24.204Z,22816
2019-05-02T08:49:24.132Z,24096
2019-05-02T08:50:27.153Z,24864
2019-05-02T08:51:24.200Z,25152
2019-05-02T08:52:24.144Z,24704
2019-05-02T08:53:24.180Z,24320
2019-05-02T08:54:27.966Z,23808
2019-05-02T08:55:24.281Z,22912
2019-05-02T08:56:24.167Z,21760
2019-05-02T08:57:24.364Z,21984
2019-05-02T08:58:24.225Z,22496
2019-05-02T08:59:24.900Z,22400
2019-05-02T09:00:24.223Z,22848
2019-05-02T09:01:34.629Z,24224
2019-05-02T09:02:25.955Z,25280
2019-05-02T09:03:24.229Z,25888
2019-05-02T09:04:28.920Z,24992
2019-05-02T09:05:24.229Z,23936
2019-05-02T09:06:24.245Z,25248
2019-05-02T09:07:24.283Z,29248
2019-05-02T09:08:24.160Z,29408
2019-05-02T09:09:27.965Z,27552
2019-05-02T09:10:24.235Z,27072
2019-05-02T09:11:24.235Z,26880
2019-05-02T09:12:24.173Z,26816
2019-05-02T09:13:29.155Z,27456
2019-05-02T09:14:24.128Z,29120
2019-05-02T09:15:24.095Z,29696
2019-05-02T09:16:28.887Z,32320
2019-05-02T09:17:35.102Z,34144
2019-05-02T09:18:30.162Z,33376
2019-05-02T09:19:26.356Z,31168
2019-05-02T09:20:24.162Z,29984
2019-05-02T09:21:26.774Z,29408
2019-05-02T09:22:24.146Z,28640
2019-05-02T09:23:27.596Z,28544
2019-05-02T09:24:24.213Z,28576
2019-05-02T09:25:24.137Z,29120
2019-05-02T09:26:35.146Z,29600
2019-05-02T09:27:24.124Z,29568
2019-05-02T09:28:25.498Z,29856
2019-05-02T09:29:24.186Z,28928
2019-05-02T09:30:25.803Z,30080
2019-05-02T09:31:24.219Z,30496
2019-05-02T09:32:26.215Z,30976
2019-05-02T09:33:24.193Z,33120
2019-05-02T09:34:26.647Z,35552
2019-05-02T09:35:24.293Z,38848
2019-05-02T09:36:24.182Z,40384
2019-05-02T09:37:24.184Z,40448
2019-05-02T09:38:24.184Z,43520
2019-05-02T09:39:27.287Z,44512
2019-05-02T09:40:24.514Z,41696
2019-05-02T09:41:26.973Z,36352
2019-05-02T09:42:24.261Z,33984
2019-05-02T09:43:24.204Z,33248
2019-05-02T09:44:24.268Z,31328
2019-05-02T09:45:27.739Z,29056
2019-05-02T09:46:24.188Z,28576
2019-05-02T09:47:27.273Z,29952
2019-05-02T09:48:26.829Z,32000
2019-05-02T09:49:24.269Z,33216
2019-05-02T09:50:29.359Z,31744
2019-05-02T09:51:24.198Z,31104
2019-05-02T09:52:24.293Z,30624
2019-05-02T09:53:25.434Z,30144
2019-05-02T09:54:24.211Z,30624
2019-05-02T09:55:24.213Z,30592
2019-05-02T09:56:24.283Z,30880
2019-05-02T09:57:24.167Z,31552
2019-05-02T09:58:24.226Z,33088
2019-05-02T09:59:29.974Z,34816
2019-05-02T10:00:26.666Z,33248
2019-05-02T10:01:24.278Z,33888
2019-05-02T10:02:25.293Z,35520
2019-05-02T10:03:24.195Z,32320
2019-05-02T10:04:24.186Z,31520
2019-05-02T10:05:24.273Z,31584
2019-05-02T10:06:24.184Z,31904
2019-05-02T10:07:24.274Z,32480
2019-05-02T10:08:24.197Z,32064
2019-05-02T10:09:27.229Z,31680
2019-05-02T10:10:24.194Z,31872
2019-05-02T10:11:26.099Z,30944
2019-05-02T10:12:24.268Z,30592
2019-05-02T10:13:24.287Z,30272
2019-05-02T10:14:24.209Z,30752
2019-05-02T10:15:24.290Z,30304
2019-05-02T10:16:27.322Z,29312
2019-05-02T10:17:24.302Z,30048
2019-05-02T10:18:29.917Z,31264
2019-05-02T10:19:26.096Z,32640
2019-05-02T10:20:34.103Z,32896
2019-05-02T10:21:24.284Z,32704
2019-05-02T10:22:26.557Z,31552
2019-05-02T10:23:24.359Z,30432
2019-05-02T10:24:24.215Z,30528
2019-05-02T10:25:24.350Z,31456
2019-05-02T10:26:24.755Z,32096
2019-05-02T10:27:24.233Z,32864
2019-05-02T10:28:24.277Z,33344
2019-05-02T10:29:28.527Z,32768
2019-05-02T10:30:24.241Z,32576
2019-05-02T10:31:27.504Z,32256
2019-05-02T10:32:24.277Z,33248
2019-05-02T10:33:28.063Z,34496
2019-05-02T10:34:24.413Z,35872
2019-05-02T10:35:28.070Z,37152
2019-05-02T10:36:24.223Z,37888
2019-05-02T10:37:24.295Z,43424
2019-05-02T10:38:24.240Z,44032
2019-05-02T10:39:28.344Z,42624
2019-05-02T10:40:24.303Z,41024
2019-05-02T10:41:24.254Z,42272
2019-05-02T10:42:24.312Z,45216
2019-05-02T10:43:24.256Z,45376
2019-05-02T10:44:27.187Z,50752
2019-05-02T10:45:24.204Z,47168
2019-05-02T10:46:27.841Z,42848
2019-05-02T10:47:24.305Z,47648
2019-05-02T10:48:28.274Z,62912
2019-05-02T10:49:24.262Z,59584
2019-05-02T10:50:24.260Z,52128
2019-05-02T10:51:26.247Z,50752
2019-05-02T10:52:29.460Z,52992
2019-05-02T10:53:24.312Z,55456
2019-05-02T10:54:28.045Z,56032
2019-05-02T10:55:24.365Z,56256
2019-05-02T10:56:24.246Z,51456
2019-05-02T10:57:24.313Z,70272
2019-05-02T10:58:31.346Z,77536
2019-05-02T10:59:24.242Z,56128
2019-05-02T11:00:24.321Z,103392
2019-05-02T11:01:24.248Z,75712
2019-05-02T11:02:24.321Z,75648
2019-05-02T11:03:24.370Z,64672
2019-05-02T11:04:28.942Z,65312
2019-05-02T11:05:26.483Z,153792
2019-05-02T11:06:24.326Z,155424
2019-05-02T11:07:26.350Z,164288
2019-05-02T11:08:24.261Z,157536
2019-05-02T11:09:26.261Z,172928
2019-05-02T11:10:24.252Z,163776
2019-05-02T11:11:24.274Z,159136
2019-05-02T11:12:25.649Z,106400
2019-05-02T11:13:24.310Z,170944
2019-05-02T11:14:24.349Z,167424
2019-05-02T11:15:26.715Z,162880
2019-05-02T11:16:24.246Z,106656
2019-05-02T11:17:24.321Z,148640
2019-05-02T11:18:39.424Z,131936
2019-05-02T11:19:24.352Z,156800
2019-05-02T11:20:24.246Z,159744
2019-05-02T11:21:24.343Z,70368
2019-05-02T11:22:24.251Z,69248
2019-05-02T11:23:24.410Z,77536
2019-05-02T11:24:24.330Z,111904
2019-05-02T11:25:24.355Z,71008
2019-05-02T11:26:25.190Z,62784
2019-05-02T11:27:24.335Z,138016
2019-05-02T11:28:24.338Z,152512
2019-05-02T11:29:24.267Z,78016
2019-05-02T11:30:26.549Z,66176
2019-05-02T11:31:24.338Z,51424
2019-05-02T11:32:24.265Z,49152
2019-05-02T11:33:24.324Z,48032
2019-05-02T11:34:24.279Z,45792
2019-05-02T11:35:24.327Z,52160
2019-05-02T11:36:27.238Z,69984
2019-05-02T11:37:24.265Z,65888
2019-05-02T11:38:51.987Z,63584
2019-05-02T11:39:30.812Z,67520
2019-05-02T11:40:24.332Z,62592
2019-05-02T11:41:24.259Z,58048
2019-05-02T11:42:27.265Z,58656
2019-05-02T11:43:24.214Z,57632
2019-05-02T11:44:24.266Z,50976
2019-05-02T11:45:24.326Z,48928
2019-05-02T11:46:24.299Z,54176
2019-05-02T11:47:26.621Z,65024
2019-05-02T11:48:24.238Z,64064
2019-05-02T11:49:24.327Z,73152
2019-05-02T11:50:26.670Z,83456
2019-05-02T11:51:24.238Z,79968
2019-05-02T11:52:27.516Z,64640
2019-05-02T11:53:28.443Z,62560
2019-05-02T11:54:24.353Z,96896
2019-05-02T11:55:28.889Z,89824
2019-05-02T11:56:24.309Z,139904
2019-05-02T11:57:28.697Z,162240
2019-05-02T11:58:24.321Z,109120
2019-05-02T11:59:28.165Z,63552
2019-05-02T12:00:24.361Z,60416
2019-05-02T12:01:35.449Z,137792
2019-05-02T12:02:24.288Z,140160
2019-05-02T12:03:28.133Z,134880
2019-05-02T12:04:24.278Z,130944
2019-05-02T12:05:26.640Z,100160
2019-05-02T12:06:24.327Z,118432
2019-05-02T12:07:24.354Z,127072
2019-05-02T12:08:24.287Z,134336
2019-05-02T12:09:24.282Z,139424
2019-05-02T12:10:27.955Z,143264
2019-05-02T12:11:24.289Z,142848
2019-05-02T12:12:27.296Z,125280
2019-05-02T12:13:24.366Z,137504
2019-05-02T12:14:27.373Z,94784
2019-05-02T12:15:24.382Z,122944
2019-05-02T12:16:24.316Z,60800
2019-05-02T12:17:24.376Z,65408
2019-05-02T12:18:24.327Z,136992
2019-05-02T12:19:24.296Z,149664
2019-05-02T12:20:28.682Z,98080
2019-05-02T12:21:24.432Z,161696
2019-05-02T12:22:24.379Z,163648
2019-05-02T12:23:24.362Z,148576
2019-05-02T12:24:24.362Z,132544
2019-05-02T12:25:24.367Z,146944
2019-05-02T12:26:24.298Z,140224
2019-05-02T12:27:24.366Z,93152
2019-05-02T12:28:24.303Z,110560
2019-05-02T12:29:24.365Z,137824
2019-05-02T12:30:24.405Z,137632
2019-05-02T12:31:24.302Z,90464
2019-05-02T12:32:24.369Z,115392
2019-05-02T12:33:24.344Z,67776
2019-05-02T12:34:24.341Z,75808
2019-05-02T12:35:24.384Z,140768
2019-05-02T12:36:24.382Z,81568
2019-05-02T12:37:24.312Z,95424
2019-05-02T12:38:24.392Z,135936
2019-05-02T12:39:24.345Z,78752
2019-05-02T12:40:24.387Z,70016
2019-05-02T12:41:25.296Z,84320
2019-05-02T12:42:24.778Z,134176
2019-05-02T12:43:24.440Z,113056
2019-05-02T12:44:24.318Z,87168
2019-05-02T12:45:24.323Z,77184
2019-05-02T12:46:24.406Z,89632
2019-05-02T12:47:24.319Z,70560
2019-05-02T12:48:24.293Z,61600
2019-05-02T12:49:27.842Z,66592
2019-05-02T12:50:24.320Z,70432
2019-05-02T12:51:24.362Z,71744
2019-05-02T12:52:24.321Z,73024
2019-05-02T12:53:24.312Z,65248
2019-05-02T12:54:24.385Z,70144
2019-05-02T12:55:24.422Z,138208
2019-05-02T12:56:24.319Z,85152
2019-05-02T12:57:24.390Z,156352
2019-05-02T12:58:24.316Z,147968
2019-05-02T12:59:24.387Z,105056
2019-05-02T13:00:24.328Z,166528
2019-05-02T13:01:24.405Z,125792
2019-05-02T13:02:24.333Z,149504
2019-05-02T13:03:24.393Z,144672
2019-05-02T13:04:24.321Z,109376
2019-05-02T13:05:24.279Z,110912
2019-05-02T13:06:24.338Z,131424
2019-05-02T13:07:24.320Z,144928
2019-05-02T13:08:25.347Z,105280
2019-05-02T13:09:24.325Z,143712
2019-05-02T13:10:24.399Z,104000
2019-05-02T13:11:24.334Z,140448
2019-05-02T13:12:24.399Z,117088
2019-05-02T13:13:24.378Z,98400
2019-05-02T13:14:24.413Z,80672
2019-05-02T13:15:24.441Z,75488
2019-05-02T13:16:24.419Z,71616
2019-05-02T13:17:24.346Z,123808
2019-05-02T13:18:26.927Z,132416
2019-05-02T13:19:37.217Z,126208
2019-05-02T13:20:25.076Z,128064
2019-05-02T13:21:24.421Z,130400
2019-05-02T13:22:24.353Z,130752
2019-05-02T13:23:27.412Z,128480
2019-05-02T13:24:29.194Z,122432